Time;durP1;ratioP1;P1;durP2;ratioP2;P2;SDS_P1;SDS_P2;PMS_P1;PMS_P2;Temp;Humidity;BMP_temperature;BMP_pressure;BME280_temperature;BME280_humidity;BME280_pressure;Samples;Min_cycle;Max_cycle;Signal;HPM_P1;HPM_P2
2023/03/07 00:02:21;;;;;;;21.55;7.38;;;;;;;4.70;100.00;97426.78;4956785;29;20031;-88
2023/03/07 00:04:49;;;;;;;12.02;5.78;;;;;;;4.83;100.00;97424.22;4957170;29;20379;-87
2023/03/07 00:11:10;;;;;;;13.85;6.47;;;;;;;4.67;100.00;97417.56;4955031;28;20038;-88
2023/03/07 00:13:37;;;;;;;16.67;6.10;;;;;;;4.51;100.00;97428.28;4937990;29;20039;-88
2023/03/07 00:16:05;;;;;;;11.13;6.30;;;;;;;4.49;100.00;97418.13;4938225;29;20039;-87
2023/03/07 00:18:31;;;;;;;11.30;6.65;;;;;;;4.68;100.00;97419.16;4941385;29;20045;-86
2023/03/07 00:21:05;;;;;;;11.25;6.65;;;;;;;4.84;100.00;97422.41;4959355;29;20503;-88
2023/03/07 00:23:32;;;;;;;12.77;6.60;;;;;;;4.76;100.00;97420.00;4959726;29;20035;-86
2023/03/07 00:26:14;;;;;;;14.70;6.30;;;;;;;4.80;100.00;97406.38;4960934;29;20118;-87
2023/03/07 00:28:40;;;;;;;11.70;7.50;;;;;;;4.72;100.00;97409.19;4944876;29;20039;-87
2023/03/07 00:31:08;;;;;;;9.95;6.07;;;;;;;4.56;100.00;97410.34;4960983;29;20042;-87
2023/03/07 00:33:44;;;;;;;12.40;7.18;;;;;;;4.40;100.00;97401.09;4960610;29;20047;-88
2023/03/07 00:36:16;;;;;;;14.02;7.13;;;;;;;4.74;100.00;97411.59;4943185;29;20118;-88
2023/03/07 00:38:43;;;;;;;17.33;7.32;;;;;;;4.73;100.00;97415.97;4945149;29;20047;-90
2023/03/07 00:41:11;;;;;;;10.07;6.60;;;;;;;4.82;100.00;97406.19;4948291;29;20490;-88
2023/03/07 00:43:37;;;;;;;13.85;6.93;;;;;;;4.58;100.00;97409.13;4943330;29;20449;-88
2023/03/07 00:46:03;;;;;;;14.68;7.68;;;;;;;4.52;100.00;97394.34;4943962;29;20049;-88
2023/03/07 00:48:33;;;;;;;12.68;7.28;;;;;;;4.56;100.00;97405.94;4959827;29;20039;-87
2023/03/07 00:50:59;;;;;;;13.43;7.60;;;;;;;4.54;100.00;97414.94;4942182;29;20039;-86
2023/03/07 00:53:24;;;;;;;11.18;6.70;;;;;;;4.49;100.00;97393.91;4942388;29;20049;-88
2023/03/07 00:56:04;;;;;;;14.00;6.90;;;;;;;4.51;100.00;97390.13;4960496;29;20557;-88
2023/03/07 00:58:34;;;;;;;12.13;6.22;;;;;;;4.78;100.00;97413.56;4961835;28;20497;-86
2023/03/07 01:01:02;;;;;;;10.38;5.40;;;;;;;4.66;100.00;97395.16;4979718;28;20030;-86
2023/03/07 01:03:28;;;;;;;10.80;5.93;;;;;;;4.82;100.00;97404.41;4978726;28;20039;-89
2023/03/07 01:05:53;;;;;;;12.45;5.90;;;;;;;4.70;100.00;97404.16;4979210;28;20078;-86
2023/03/07 01:08:20;;;;;;;8.30;5.95;;;;;;;4.93;100.00;97407.41;4978671;28;20050;-89
2023/03/07 01:10:47;;;;;;;9.55;5.63;;;;;;;4.79;100.00;97394.38;4978166;28;20046;-87
2023/03/07 01:13:13;;;;;;;10.38;5.95;;;;;;;4.87;100.00;97403.78;4977432;28;20054;-87
2023/03/07 01:15:39;;;;;;;9.65;4.97;;;;;;;4.87;100.00;97406.41;4979724;28;20099;-87
2023/03/07 01:18:06;;;;;;;5.53;4.03;;;;;;;4.82;100.00;97411.41;4978461;28;20061;-89
2023/03/07 01:20:33;;;;;;;9.75;4.32;;;;;;;4.59;100.00;97412.56;4978884;28;20038;-87
2023/03/07 01:22:59;;;;;;;7.45;4.13;;;;;;;4.68;100.00;97395.75;4977963;28;20038;-88
2023/03/07 01:25:25;;;;;;;6.65;3.63;;;;;;;4.66;100.00;97405.56;4978687;28;20039;-88
2023/03/07 01:27:51;;;;;;;6.45;3.30;;;;;;;4.53;100.00;97392.56;4979583;28;20034;-89
2023/03/07 01:30:17;;;;;;;5.28;3.58;;;;;;;4.24;100.00;97397.84;4961746;28;20463;-87
2023/03/07 01:32:43;;;;;;;5.13;2.67;;;;;;;4.33;100.00;97406.28;4978960;28;20077;-88
2023/03/07 01:35:08;;;;;;;6.20;2.45;;;;;;;4.12;100.00;97399.41;4961720;28;20047;-88
2023/03/07 01:37:34;;;;;;;4.50;2.33;;;;;;;4.14;100.00;97410.38;4978779;28;20050;-86
2023/03/07 01:40:00;;;;;;;5.18;1.80;;;;;;;4.13;100.00;97401.81;4961110;28;20046;-88
2023/03/07 01:42:30;;;;;;;2.75;1.80;;;;;;;4.46;100.00;97399.50;4980357;28;20070;-88
2023/03/07 01:45:06;;;;;;;3.65;1.95;;;;;;;4.61;100.00;97399.34;4960591;28;20035;-87
2023/03/07 01:47:32;;;;;;;5.03;2.15;;;;;;;4.31;100.00;97403.06;4977467;28;20059;-88
2023/03/07 01:50:01;;;;;;;4.75;1.88;;;;;;;4.09;100.00;97390.19;4959083;28;20145;-87
2023/03/07 01:52:33;;;;;;;2.78;1.45;;;;;;;4.43;100.00;97411.91;4960004;28;20034;-87
2023/03/07 01:55:08;;;;;;;5.00;1.83;;;;;;;4.32;100.00;97396.88;4960148;28;20050;-89
2023/03/07 01:57:38;;;;;;;5.57;2.15;;;;;;;4.28;100.00;97400.84;4947343;29;20047;-88
2023/03/07 02:00:10;;;;;;;5.32;1.70;;;;;;;4.35;100.00;97400.88;4940801;29;20051;-88
2023/03/07 02:02:40;;;;;;;6.45;1.70;;;;;;;4.36;100.00;97392.09;4958323;29;20039;-88
2023/03/07 02:05:44;;;;;;;4.47;1.65;;;;;;;4.46;100.00;97396.91;4941554;28;20050;-89
2023/03/07 02:08:12;;;;;;;4.70;1.80;;;;;;;4.56;100.00;97397.34;4928660;29;20039;-87
2023/03/07 02:10:40;;;;;;;3.28;1.42;;;;;;;4.31;100.00;97392.66;4957175;29;20046;-89
2023/03/07 02:13:06;;;;;;;10.20;2.00;;;;;;;4.08;100.00;97365.22;4956680;29;20067;-88
2023/03/07 02:15:33;;;;;;;1.90;1.63;;;;;;;4.18;100.00;97377.06;4959412;29;20043;-87
2023/03/07 02:18:00;;;;;;;1.77;1.50;;;;;;;4.35;100.00;97373.13;4941951;29;20128;-86
2023/03/07 02:20:47;;;;;;;4.90;1.80;;;;;;;4.77;100.00;97380.00;4958957;29;20035;-87
2023/03/07 02:23:28;;;;;;;3.03;1.85;;;;;;;4.55;100.00;97377.56;4941533;29;20054;-89
2023/03/07 02:26:13;;;;;;;5.63;1.70;;;;;;;4.07;100.00;97374.00;4958796;28;20035;-87
2023/03/07 02:28:41;;;;;;;1.60;1.10;;;;;;;4.24;100.00;97377.09;4958394;29;20058;-88
2023/03/07 02:31:08;;;;;;;1.92;1.40;;;;;;;4.42;100.00;97368.72;4957907;29;20533;-87
2023/03/07 02:33:33;;;;;;;3.60;1.50;;;;;;;4.18;100.00;97370.06;4957767;28;20077;-87
2023/03/07 02:36:04;;;;;;;4.60;1.30;;;;;;;4.27;100.00;97375.88;4941160;29;20043;-87
2023/03/07 02:38:36;;;;;;;5.40;1.63;;;;;;;4.13;100.00;97375.84;4940915;29;20039;-88
2023/03/07 02:41:03;;;;;;;2.58;1.35;;;;;;;4.17;100.00;97373.63;4958141;28;20074;-88
2023/03/07 02:43:29;;;;;;;1.90;1.50;;;;;;;4.17;100.00;97370.25;4958531;29;20059;-88
2023/03/07 02:45:57;;;;;;;2.92;1.50;;;;;;;4.14;100.00;97371.44;4958030;29;20402;-87
2023/03/07 02:48:22;;;;;;;2.97;1.63;;;;;;;4.16;100.00;97373.84;4942083;29;20067;-88
2023/03/07 02:50:48;;;;;;;2.30;1.50;;;;;;;4.34;100.00;97379.31;4958882;29;20533;-89
2023/03/07 02:53:14;;;;;;;2.97;1.85;;;;;;;4.38;100.00;97375.31;4959396;28;20074;-90
2023/03/07 02:55:40;;;;;;;1.65;1.27;;;;;;;4.17;100.00;97372.84;4959483;29;20094;-89
2023/03/07 02:58:06;;;;;;;2.65;1.50;;;;;;;4.29;100.00;97374.69;4976986;28;20038;-90
2023/03/07 03:00:31;;;;;;;3.65;1.60;;;;;;;4.16;100.00;97379.84;4960507;28;20065;-88
2023/03/07 03:02:59;;;;;;;6.82;1.70;;;;;;;4.14;100.00;97376.63;4977141;28;20045;-89
2023/03/07 03:05:25;;;;;;;5.47;1.60;;;;;;;4.10;100.00;97376.22;4960033;28;20043;-87
2023/03/07 03:07:50;;;;;;;2.75;1.70;;;;;;;4.01;100.00;97382.56;4979611;28;20083;-87
2023/03/07 03:10:16;;;;;;;1.83;1.60;;;;;;;3.92;100.00;97388.91;4979942;28;20026;-88
2023/03/07 03:12:42;;;;;;;3.53;1.23;;;;;;;3.80;100.00;97381.69;4986435;28;20049;-87
2023/03/07 03:15:08;;;;;;;2.65;1.60;;;;;;;3.75;100.00;97383.25;4987420;28;20047;-91
2023/03/07 03:17:34;;;;;;;3.05;1.40;;;;;;;3.32;100.00;97384.16;4981288;28;20050;-88
2023/03/07 03:20:00;;;;;;;2.95;1.65;;;;;;;3.60;100.00;97386.75;4961325;28;20051;-88
2023/03/07 03:22:25;;;;;;;2.65;1.65;;;;;;;3.39;100.00;97377.25;4977371;28;20066;-87
2023/03/07 03:24:50;;;;;;;2.55;1.90;;;;;;;3.62;100.00;97383.97;4977418;28;20058;-90
2023/03/07 03:27:16;;;;;;;3.67;1.40;;;;;;;3.66;100.00;97391.19;4977663;28;20050;-88
2023/03/07 03:29:41;;;;;;;6.05;1.77;;;;;;;3.65;100.00;97383.59;4977041;28;20049;-87
2023/03/07 03:32:07;;;;;;;2.47;1.40;;;;;;;3.57;100.00;97385.34;4976930;28;20404;-89
2023/03/07 03:34:32;;;;;;;5.47;1.70;;;;;;;3.70;100.00;97378.63;4976964;28;20035;-89
2023/03/07 03:36:58;;;;;;;7.80;1.50;;;;;;;3.69;100.00;97375.22;4977245;28;20469;-89
2023/03/07 03:39:24;;;;;;;3.05;1.50;;;;;;;3.77;100.00;97360.50;4975550;28;20042;-89
2023/03/07 03:41:50;;;;;;;5.00;1.85;;;;;;;3.93;100.00;97369.75;4976499;28;20039;-87
2023/03/07 03:44:15;;;;;;;5.63;1.55;;;;;;;3.77;100.00;97363.91;4976419;28;20058;-88
2023/03/07 03:46:41;;;;;;;3.08;1.55;;;;;;;3.84;100.00;97366.53;4975636;28;20106;-89
2023/03/07 03:49:06;;;;;;;3.10;1.40;;;;;;;3.84;100.00;97371.72;4976433;28;20494;-88
2023/03/07 03:51:32;;;;;;;4.35;1.63;;;;;;;3.57;100.00;97377.56;4958504;28;20042;-88
2023/03/07 03:53:57;;;;;;;2.28;1.60;;;;;;;3.61;100.00;97375.38;4977540;28;20074;-87
2023/03/07 03:56:24;;;;;;;3.78;1.88;;;;;;;3.48;100.00;97373.50;4977210;28;20082;-88
2023/03/07 03:58:54;;;;;;;10.73;2.60;;;;;;;3.65;100.00;97373.22;4967928;28;20046;-88
2023/03/07 04:01:22;;;;;;;6.97;1.40;;;;;;;3.63;100.00;97375.19;4945282;28;20529;-87
2023/03/07 04:03:50;;;;;;;5.03;1.38;;;;;;;3.68;100.00;97370.22;4967418;28;20046;-86
2023/03/07 04:06:25;;;;;;;5.95;1.50;;;;;;;3.75;100.00;97378.88;4941821;29;20039;-88
2023/03/07 04:08:52;;;;;;;2.35;1.85;;;;;;;3.56;100.00;97363.00;4966778;28;20038;-89
2023/03/07 04:11:18;;;;;;;3.08;1.70;;;;;;;3.75;100.00;97371.09;4951373;28;20040;-88
2023/03/07 04:13:44;;;;;;;3.72;1.70;;;;;;;3.77;100.00;97371.69;4950895;28;20055;-88
2023/03/07 04:16:09;;;;;;;3.67;1.70;;;;;;;3.55;100.00;97378.75;4950748;28;20157;-88
2023/03/07 04:18:35;;;;;;;3.13;1.80;;;;;;;3.33;100.00;97376.19;4963367;28;20039;-87
2023/03/07 04:21:02;;;;;;;4.32;1.60;;;;;;;3.04;100.00;97372.00;4964008;28;20031;-87
2023/03/07 04:23:28;;;;;;;2.05;1.60;;;;;;;3.09;100.00;97375.63;4966019;28;20044;-88
2023/03/07 04:25:57;;;;;;;5.13;1.85;;;;;;;3.14;100.00;97375.88;4963598;28;20050;-91
2023/03/07 04:28:40;;;;;;;5.28;1.63;;;;;;;2.94;100.00;97367.13;4962751;28;20062;-90
2023/03/07 04:31:05;;;;;;;1.30;1.20;;;;;;;2.76;100.00;97375.34;4968233;28;20102;-86
2023/03/07 04:33:31;;;;;;;1.95;1.45;;;;;;;2.65;100.00;97374.84;4964590;28;20043;-87
2023/03/07 04:35:56;;;;;;;4.53;1.80;;;;;;;2.62;100.00;97366.63;4965618;28;20106;-86
2023/03/07 04:38:22;;;;;;;2.28;1.35;;;;;;;2.56;100.00;97366.38;4952827;28;20047;-85
2023/03/07 04:40:47;;;;;;;4.32;1.50;;;;;;;2.52;100.00;97362.56;4961658;28;20189;-86
2023/03/07 04:43:13;;;;;;;3.10;1.50;;;;;;;2.39;100.00;97363.25;4968481;28;20046;-85
2023/03/07 04:45:38;;;;;;;2.33;1.30;;;;;;;2.35;100.00;97354.22;4969078;28;20055;-85
2023/03/07 04:48:04;;;;;;;3.33;1.75;;;;;;;2.31;100.00;97355.56;4969215;28;20482;-90
2023/03/07 04:50:30;;;;;;;2.65;1.23;;;;;;;2.21;100.00;97362.84;4964941;28;20034;-89
2023/03/07 04:52:55;;;;;;;3.00;1.65;;;;;;;2.14;100.00;97363.56;4965620;28;20063;-88
2023/03/07 04:55:21;;;;;;;7.43;1.80;;;;;;;2.18;100.00;97350.28;4966195;28;20051;-89
2023/03/07 04:57:46;;;;;;;2.00;1.30;;;;;;;2.22;100.00;97359.28;4948613;28;20051;-86
2023/03/07 05:00:13;;;;;;;6.03;1.70;;;;;;;2.14;100.00;97355.78;4961756;28;20047;-90
2023/03/07 05:02:38;;;;;;;4.25;1.50;;;;;;;2.02;100.00;97352.06;4945980;28;20047;-86
2023/03/07 05:05:04;;;;;;;8.57;1.65;;;;;;;2.00;100.00;97361.81;4967240;28;20053;-90
2023/03/07 05:07:31;;;;;;;5.10;1.85;;;;;;;2.07;100.00;97352.31;4969539;28;20054;-88
2023/03/07 05:09:57;;;;;;;5.30;1.58;;;;;;;2.05;100.00;97359.47;4966698;28;20043;-86
2023/03/07 05:12:23;;;;;;;2.65;1.80;;;;;;;2.16;100.00;97350.44;4969339;28;20489;-87
2023/03/07 05:14:52;;;;;;;3.22;1.63;;;;;;;2.21;100.00;97342.13;4970904;28;20073;-87
2023/03/07 05:17:18;;;;;;;12.25;1.65;;;;;;;2.27;100.00;97351.75;4970141;28;20035;-86
2023/03/07 05:19:44;;;;;;;5.10;1.65;;;;;;;2.06;100.00;97355.09;4951424;28;20501;-87
2023/03/07 05:22:10;;;;;;;3.97;1.60;;;;;;;1.96;100.00;97350.19;4967052;28;20110;-87
2023/03/07 05:24:35;;;;;;;7.45;1.40;;;;;;;1.85;100.00;97360.03;4948587;28;20043;-86
2023/03/07 05:27:01;;;;;;;5.03;1.80;;;;;;;1.69;100.00;97363.63;4957065;28;20039;-86
2023/03/07 05:29:26;;;;;;;4.00;1.42;;;;;;;1.84;100.00;97358.44;4953067;28;20047;-86
2023/03/07 05:31:52;;;;;;;4.95;1.60;;;;;;;1.88;100.00;97358.88;4965962;28;20182;-85
2023/03/07 05:34:17;;;;;;;5.70;1.25;;;;;;;1.86;100.00;97350.47;4956471;28;20035;-88
2023/03/07 05:36:43;;;;;;;2.72;1.42;;;;;;;2.02;100.00;97354.66;4963687;28;20047;-87
2023/03/07 05:39:09;;;;;;;3.78;1.75;;;;;;;1.81;100.00;97348.44;4970493;28;20074;-86
2023/03/07 05:41:35;;;;;;;3.05;1.30;;;;;;;1.92;100.00;97344.59;4960309;28;20123;-87
2023/03/07 05:44:00;;;;;;;5.20;1.48;;;;;;;1.98;100.00;97353.44;4967273;28;20070;-89
2023/03/07 05:46:26;;;;;;;2.80;1.35;;;;;;;2.09;100.00;97349.56;4971438;28;20043;-88
2023/03/07 05:48:51;;;;;;;8.85;1.40;;;;;;;2.00;100.00;97356.63;4967803;28;20386;-86
2023/03/07 05:51:17;;;;;;;4.10;1.20;;;;;;;1.91;100.00;97368.06;4951472;28;20058;-86
2023/03/07 05:53:42;;;;;;;4.00;1.30;;;;;;;1.80;100.00;97357.19;4970240;28;20045;-88
2023/03/07 05:56:08;;;;;;;5.13;1.75;;;;;;;1.74;100.00;97365.66;4950469;28;20103;-87
2023/03/07 05:58:34;;;;;;;5.60;1.65;;;;;;;1.80;100.00;97361.56;4972437;28;20042;-87
2023/03/07 06:01:03;;;;;;;4.63;1.70;;;;;;;1.94;100.00;97359.94;4950448;28;20132;-87
2023/03/07 06:03:29;;;;;;;7.35;1.42;;;;;;;1.82;100.00;97354.41;4968057;28;20569;-85
2023/03/07 06:05:54;;;;;;;3.38;1.48;;;;;;;1.68;100.00;97361.19;4971616;28;20045;-87
2023/03/07 06:08:20;;;;;;;3.50;1.42;;;;;;;1.76;100.00;97361.09;4949497;29;20405;-85
2023/03/07 06:10:53;;;;;;;7.25;1.40;;;;;;;1.81;100.00;97363.16;4969738;28;20453;-89
2023/03/07 06:13:44;;;;;;;8.52;2.08;;;;;;;1.77;100.00;97378.25;4949263;28;20075;-88
2023/03/07 06:16:10;;;;;;;2.75;1.42;;;;;;;1.74;100.00;97372.63;4949858;28;20042;-87
2023/03/07 06:18:36;;;;;;;5.10;1.80;;;;;;;1.66;100.00;97374.31;4968958;28;20042;-88
2023/03/07 06:21:05;;;;;;;5.63;1.58;;;;;;;1.73;100.00;97382.16;4961645;28;20039;-83
2023/03/07 06:23:33;;;;;;;4.75;1.60;;;;;;;1.70;100.00;97377.34;4966520;28;20562;-81
2023/03/07 06:25:59;;;;;;;2.83;1.27;;;;;;;1.45;100.00;97380.19;4968444;28;20124;-89
2023/03/07 06:28:27;;;;;;;3.17;1.50;;;;;;;1.56;100.00;97379.75;4976976;28;20054;-88
2023/03/07 06:30:53;;;;;;;4.95;1.42;;;;;;;1.56;100.00;97368.59;4978874;28;20043;-84
2023/03/07 06:33:19;;;;;;;3.63;1.27;;;;;;;1.56;100.00;97369.38;4974881;28;20133;-86
2023/03/07 06:35:45;;;;;;;5.18;1.30;;;;;;;1.28;100.00;97370.00;4972013;28;20070;-87
2023/03/07 06:38:12;;;;;;;5.07;1.70;;;;;;;1.35;100.00;97377.03;4954847;28;20409;-85
2023/03/07 06:40:38;;;;;;;1.52;1.05;;;;;;;1.30;100.00;97376.78;4959401;28;20105;-90
2023/03/07 06:43:04;;;;;;;6.03;1.58;;;;;;;1.16;100.00;97366.22;4972909;28;20181;-91
2023/03/07 06:45:29;;;;;;;3.38;1.50;;;;;;;1.21;100.00;97371.69;4965554;28;20042;-83
2023/03/07 06:47:55;;;;;;;9.40;2.08;;;;;;;1.20;100.00;97379.63;4949266;28;20051;-85
2023/03/07 06:50:21;;;;;;;8.73;2.30;;;;;;;1.36;100.00;97381.25;4955539;29;20113;-85
2023/03/07 06:52:48;;;;;;;8.57;1.60;;;;;;;1.08;100.00;97377.47;4964707;29;20031;-85
2023/03/07 06:55:14;;;;;;;5.63;1.52;;;;;;;1.27;100.00;97383.91;4956585;29;20061;-87
2023/03/07 06:57:41;;;;;;;4.30;1.40;;;;;;;1.27;100.00;97383.91;4984463;28;20063;-88
2023/03/07 07:00:08;;;;;;;3.63;1.30;;;;;;;1.12;100.00;97380.47;4958921;28;20123;-85
2023/03/07 07:02:33;;;;;;;3.90;1.90;;;;;;;1.13;100.00;97371.75;4942115;29;20039;-88
2023/03/07 07:04:59;;;;;;;3.15;1.13;;;;;;;1.27;100.00;97383.09;4974109;28;20062;-84
2023/03/07 07:07:25;;;;;;;2.83;1.50;;;;;;;1.14;100.00;97363.03;4946220;29;20079;-86
2023/03/07 07:09:51;;;;;;;3.65;1.23;;;;;;;1.11;100.00;97382.28;4964639;28;20062;-86
2023/03/07 07:12:17;;;;;;;2.55;1.20;;;;;;;1.08;100.00;97371.47;4984821;28;20401;-91
2023/03/07 07:14:43;;;;;;;2.95;1.20;;;;;;;0.94;100.00;97371.25;4969011;28;20038;-88
2023/03/07 07:17:16;;;;;;;1.38;1.00;;;;;;;1.14;100.00;97386.28;4961125;28;20486;-87
2023/03/07 07:23:29;;;;;;;2.33;1.10;;;;;;;1.08;100.00;97392.97;4978904;28;20129;-90
2023/03/07 07:25:55;;;;;;;3.33;0.95;;;;;;;0.94;100.00;97397.09;4978890;28;20050;-88
2023/03/07 07:28:21;;;;;;;4.00;1.00;;;;;;;1.06;100.00;97389.72;4980389;28;20125;-86
2023/03/07 07:30:50;;;;;;;1.98;0.95;;;;;;;0.99;100.00;97381.06;4980119;28;20039;-88
2023/03/07 07:33:19;;;;;;;3.10;1.20;;;;;;;0.98;100.00;97382.88;4980599;28;20074;-87
2023/03/07 07:35:46;;;;;;;1.63;1.23;;;;;;;1.13;100.00;97388.06;4963466;28;20215;-89
2023/03/07 07:38:19;;;;;;;3.80;1.48;;;;;;;1.22;100.00;97396.56;4963878;28;20043;-88
2023/03/07 07:40:45;;;;;;;2.35;1.25;;;;;;;1.36;100.00;97386.41;4964492;28;20049;-86
2023/03/07 07:43:14;;;;;;;3.30;1.25;;;;;;;1.84;100.00;97375.72;4969582;28;20043;-86
2023/03/07 07:45:40;;;;;;;3.08;1.40;;;;;;;1.21;100.00;97374.28;4964715;28;20050;-86
2023/03/07 07:48:07;;;;;;;6.25;3.17;;;;;;;1.39;100.00;97402.38;4968463;28;20350;-85
2023/03/07 07:50:38;;;;;;;4.50;1.15;;;;;;;1.48;100.00;97400.53;4977652;28;20529;-87
2023/03/07 07:53:04;;;;;;;4.97;1.15;;;;;;;1.41;100.00;97400.41;4955152;28;20373;-89
2023/03/07 08:02:50;;;;;;;4.47;1.38;;;;;;;1.49;100.00;97407.28;4959679;28;20043;-87
2023/03/07 08:05:27;;;;;;;4.75;1.65;;;;;;;1.84;100.00;97397.25;4959331;28;20046;-88
2023/03/07 08:08:08;;;;;;;6.18;1.30;;;;;;;2.02;100.00;97415.97;4962265;28;20453;-85
2023/03/07 08:10:34;;;;;;;5.72;2.00;;;;;;;1.83;100.00;97408.56;4965042;28;20038;-86
2023/03/07 08:13:00;;;;;;;3.70;1.10;;;;;;;1.84;100.00;97420.53;4959520;28;20039;-85
2023/03/07 08:15:26;;;;;;;2.72;1.23;;;;;;;1.92;100.00;97398.94;4961192;28;20042;-86
2023/03/07 08:17:51;;;;;;;6.45;1.58;;;;;;;1.99;100.00;97405.00;4960857;28;20101;-86
2023/03/07 08:20:21;;;;;;;4.22;1.77;;;;;;;2.30;100.00;97423.09;4959680;28;20047;-86
2023/03/07 08:22:47;;;;;;;6.47;1.33;;;;;;;2.47;100.00;97424.50;4957253;28;20035;-84
2023/03/07 08:28:36;;;;;;;4.40;1.27;;;;;;;2.15;100.00;97421.31;4965211;28;20496;-87
2023/03/07 08:31:22;;;;;;;8.18;1.80;;;;;;;2.15;100.00;97416.13;4982017;28;20592;-88
2023/03/07 08:33:48;;;;;;;3.78;1.33;;;;;;;1.98;100.00;97402.59;4977930;28;20507;-86
2023/03/07 08:36:15;;;;;;;6.85;1.20;;;;;;;2.00;100.00;97408.41;4978836;28;20045;-85
2023/03/07 08:38:41;;;;;;;5.80;1.40;;;;;;;2.26;100.00;97422.63;4962417;28;20047;-84
2023/03/07 08:41:08;;;;;;;6.80;1.38;;;;;;;2.54;100.00;97434.91;4963828;28;20122;-85
2023/03/07 08:43:38;;;;;;;3.40;1.52;;;;;;;2.54;100.00;97409.81;4964663;28;20410;-84
2023/03/07 08:46:04;;;;;;;4.90;1.30;;;;;;;2.60;100.00;97415.22;4962687;28;20121;-84
2023/03/07 08:48:30;;;;;;;6.95;1.60;;;;;;;2.80;100.00;97425.81;4980987;28;20073;-85
2023/03/07 08:50:55;;;;;;;6.28;1.30;;;;;;;2.62;100.00;97415.84;4980847;28;20085;-85
2023/03/07 08:53:21;;;;;;;3.63;1.50;;;;;;;2.65;100.00;97429.25;4980513;28;20042;-85
2023/03/07 08:55:47;;;;;;;5.03;1.10;;;;;;;2.67;100.00;97429.88;4963134;28;20042;-85
2023/03/07 08:58:14;;;;;;;4.63;1.20;;;;;;;2.78;100.00;97431.16;4963893;28;20042;-84
2023/03/07 09:00:40;;;;;;;7.45;1.42;;;;;;;2.78;100.00;97432.97;4969746;28;20106;-85
2023/03/07 09:03:06;;;;;;;3.35;1.50;;;;;;;2.68;100.00;97446.22;4972357;28;20466;-83
2023/03/07 09:05:35;;;;;;;1.65;1.20;;;;;;;2.50;100.00;97431.88;4952156;28;20049;-84
2023/03/07 09:08:00;;;;;;;3.42;1.80;;;;;;;2.57;100.00;97439.72;4949611;28;20118;-86
2023/03/07 09:10:26;;;;;;;6.20;1.40;;;;;;;2.78;100.00;97420.03;4956519;28;20074;-86
2023/03/07 09:12:54;;;;;;;4.75;1.52;;;;;;;2.53;100.00;97425.53;4979179;28;20151;-86
2023/03/07 09:15:22;;;;;;;1.55;1.20;;;;;;;2.58;100.00;97412.84;4956895;29;20497;-85
2023/03/07 09:17:48;;;;;;;6.55;3.05;;;;;;;2.63;100.00;97423.44;4970055;28;20039;-84
2023/03/07 09:20:17;;;;;;;2.03;1.20;;;;;;;2.62;100.00;97419.25;4966058;28;20046;-83
2023/03/07 09:22:42;;;;;;;5.22;1.40;;;;;;;2.64;100.00;97434.59;4968308;28;20039;-84
2023/03/07 09:25:09;;;;;;;2.83;1.30;;;;;;;2.92;100.00;97442.47;4954787;28;20058;-85
2023/03/07 09:27:35;;;;;;;7.05;1.67;;;;;;;2.87;100.00;97451.81;4955586;28;20045;-84
2023/03/07 09:30:00;;;;;;;3.80;1.48;;;;;;;2.66;100.00;97427.47;4951800;28;20118;-85
2023/03/07 09:32:26;;;;;;;5.05;1.50;;;;;;;2.77;100.00;97415.81;4953551;28;20046;-83
2023/03/07 09:34:52;;;;;;;4.45;1.42;;;;;;;2.78;100.00;97427.78;4969118;28;20144;-84
2023/03/07 09:37:18;;;;;;;3.45;1.50;;;;;;;2.83;100.00;97443.59;4945711;28;20046;-84
2023/03/07 09:39:44;;;;;;;14.15;2.63;;;;;;;2.64;100.00;97443.19;4943838;28;20098;-85
2023/03/07 09:42:15;;;;;;;1.65;1.10;;;;;;;2.92;100.00;97455.41;4968165;28;20026;-84
2023/03/07 09:44:59;;;;;;;4.53;1.35;;;;;;;3.10;100.00;97449.00;4972298;28;20181;-87
2023/03/07 09:47:42;;;;;;;5.47;1.63;;;;;;;3.39;100.00;97442.09;4950156;28;20048;-85
2023/03/07 09:50:20;;;;;;;8.23;1.70;;;;;;;2.80;100.00;97423.22;4967200;28;20034;-84
2023/03/07 09:52:46;;;;;;;3.17;1.27;;;;;;;2.96;100.00;97443.72;4972973;28;20035;-86
2023/03/07 09:55:19;;;;;;;4.10;1.25;;;;;;;3.22;100.00;97439.75;4956571;29;20034;-86
2023/03/07 09:57:54;;;;;;;3.72;1.55;;;;;;;3.28;100.00;97446.78;4958497;28;20058;-87
2023/03/07 10:00:22;;;;;;;3.97;1.35;;;;;;;2.96;100.00;97448.91;4971079;28;20038;-85
2023/03/07 10:03:13;;;;;;;4.90;1.58;;;;;;;3.12;100.00;97445.25;4980070;28;20071;-85
2023/03/07 10:05:47;;;;;;;5.10;1.52;;;;;;;3.35;100.00;97451.25;4966060;28;20102;-86
2023/03/07 10:08:41;;;;;;;3.80;1.40;;;;;;;3.06;100.00;97432.22;4947457;29;20046;-84
2023/03/07 10:11:51;;;;;;;6.65;1.50;;;;;;;3.36;99.33;97445.06;4973472;28;20051;-88
2023/03/07 10:14:53;;;;;;;4.95;1.33;;;;;;;3.28;98.98;97446.78;4945260;28;20047;-86
2023/03/07 10:17:50;;;;;;;3.40;1.45;;;;;;;3.49;97.69;97447.75;4962697;28;20142;-86
2023/03/07 10:20:50;;;;;;;7.25;1.42;;;;;;;3.42;97.84;97452.09;4979128;28;20049;-86
2023/03/07 10:23:35;;;;;;;3.70;1.42;;;;;;;3.49;97.12;97445.13;4948221;28;20059;-83
2023/03/07 10:26:09;;;;;;;2.75;1.40;;;;;;;3.81;98.24;97442.16;4943112;28;20047;-84
2023/03/07 10:28:38;;;;;;;7.60;1.60;;;;;;;3.57;96.72;97445.03;4970743;28;20891;-85
2023/03/07 10:31:24;;;;;;;7.35;1.42;;;;;;;3.74;96.27;97446.50;4965344;28;20038;-83
2023/03/07 10:33:55;;;;;;;2.72;1.58;;;;;;;3.49;96.52;97434.78;4938166;28;20406;-86
2023/03/07 10:36:22;;;;;;;3.53;1.60;;;;;;;3.57;95.51;97455.41;4969814;28;20042;-88
2023/03/07 10:39:46;;;;;;;6.60;1.65;;;;;;;3.89;94.88;97447.22;4950484;28;20039;-87
2023/03/07 10:42:33;;;;;;;1.95;1.40;;;;;;;3.96;95.79;97442.06;4961181;28;20066;-87
2023/03/07 10:45:00;;;;;;;2.58;1.55;;;;;;;3.99;95.02;97454.66;4956553;28;20039;-87
2023/03/07 10:47:27;;;;;;;4.80;1.70;;;;;;;3.96;93.51;97442.06;4956921;28;20090;-88
2023/03/07 10:50:17;;;;;;;8.20;2.10;;;;;;;4.11;94.02;97455.72;4952407;28;20065;-86
2023/03/07 10:52:56;;;;;;;7.80;2.50;;;;;;;4.16;93.90;97442.16;4957457;28;20043;-84
2023/03/07 10:55:43;;;;;;;3.67;1.92;;;;;;;4.11;94.28;97436.75;4947194;28;20130;-86
2023/03/07 10:58:23;;;;;;;5.50;1.73;;;;;;;3.82;89.92;97426.41;4950597;28;20047;-86
2023/03/07 11:01:04;;;;;;;2.80;1.63;;;;;;;3.86;90.67;97458.78;4945376;28;20079;-86
2023/03/07 11:03:45;;;;;;;5.70;1.95;;;;;;;3.93;90.92;97442.44;4959307;29;20122;-86
2023/03/07 11:06:49;;;;;;;4.25;1.63;;;;;;;4.11;90.46;97440.13;4965217;29;20543;-88
2023/03/07 11:09:28;;;;;;;4.72;1.67;;;;;;;4.13;89.43;97445.16;4942015;29;20102;-85
2023/03/07 11:12:06;;;;;;;5.50;2.25;;;;;;;4.08;90.23;97447.53;4944031;29;20485;-89
2023/03/07 11:14:57;;;;;;;3.97;2.75;;;;;;;4.24;91.12;97444.59;4943138;29;20158;-85
2023/03/07 11:17:39;;;;;;;8.27;2.17;;;;;;;4.28;90.41;97445.00;4943133;29;20425;-86
2023/03/07 11:20:17;;;;;;;3.70;1.77;;;;;;;3.69;86.78;97444.47;4965666;28;20421;-87
2023/03/07 11:22:43;;;;;;;5.50;1.83;;;;;;;3.86;85.99;97452.78;4969245;28;20117;-85
2023/03/07 11:25:11;;;;;;;2.58;1.73;;;;;;;4.11;87.35;97449.72;4954836;29;20035;-86
2023/03/07 11:27:54;;;;;;;1.50;1.40;;;;;;;4.33;87.33;97441.84;4962975;28;20039;-86
2023/03/07 11:30:23;;;;;;;3.40;1.75;;;;;;;4.24;86.70;97454.19;4962700;29;20043;-85
2023/03/07 11:33:22;;;;;;;3.83;1.42;;;;;;;4.43;87.32;97458.66;4962896;29;20054;-86
2023/03/07 11:36:14;;;;;;;1.50;1.40;;;;;;;4.38;86.10;97437.66;4948284;29;20046;-86
2023/03/07 11:39:01;;;;;;;3.92;1.65;;;;;;;4.46;85.43;97461.88;4949156;29;20058;-86
2023/03/07 11:41:35;;;;;;;3.72;1.50;;;;;;;4.54;84.67;97453.91;4958054;29;20123;-85
2023/03/07 11:44:13;;;;;;;2.22;1.40;;;;;;;4.71;83.95;97455.16;4942268;29;20466;-85
2023/03/07 11:47:18;;;;;;;1.45;1.30;;;;;;;4.23;83.20;97449.97;4944596;29;20430;-87
2023/03/07 11:50:02;;;;;;;2.90;1.60;;;;;;;4.38;82.54;97466.25;4943130;29;20020;-85
2023/03/07 11:52:31;;;;;;;4.75;1.88;;;;;;;4.62;83.75;97474.53;4958110;28;20047;-84
2023/03/07 11:55:04;;;;;;;3.13;1.30;;;;;;;4.89;82.23;97458.22;4956972;28;20043;-85
2023/03/07 11:57:57;;;;;;;8.45;2.35;;;;;;;5.36;82.24;97466.06;4937858;29;20061;-86
2023/03/07 12:00:31;;;;;;;5.22;1.45;;;;;;;5.28;78.19;97454.84;4971292;28;20121;-86
2023/03/07 12:03:08;;;;;;;6.47;1.55;;;;;;;5.60;77.45;97472.50;4975526;28;20038;-87
2023/03/07 12:05:46;;;;;;;4.47;1.65;;;;;;;5.82;74.43;97454.03;4975812;28;20043;-84
2023/03/07 12:08:22;;;;;;;2.63;1.33;;;;;;;5.98;72.90;97455.41;4976615;28;20035;-85